Time;durP1;ratioP1;P1;durP2;ratioP2;P2;SDS_P1;SDS_P2;PMS_P1;PMS_P2;Temp;Humidity;BMP_temperature;BMP_pressure;BME280_temperature;BME280_humidity;BME280_pressure;Samples;Min_cycle;Max_cycle;Signal;HPM_P1;HPM_P2
2022/04/07 00:00:23;;;;;;;32.72;2.25;;;;;;;;;;5069612;28;20028;-75
2022/04/07 00:02:49;;;;;;;11.13;1.38;;;;;;;;;;5075700;28;20260;-75
2022/04/07 00:05:14;;;;;;;21.17;2.25;;;;;;;;;;5089314;28;20034;-74
2022/04/07 00:07:40;;;;;;;25.02;2.30;;;;;;;;;;5070673;28;20341;-74
2022/04/07 00:10:06;;;;;;;14.73;2.33;;;;;;;;;;5067712;28;20079;-74
2022/04/07 00:12:35;;;;;;;20.27;1.77;;;;;;;;;;5065610;28;20024;-74
2022/04/07 00:15:01;;;;;;;25.73;2.40;;;;;;;;;;5096270;28;20035;-75
2022/04/07 00:17:27;;;;;;;27.50;2.97;;;;;;;;;;5052887;28;20097;-76
2022/04/07 00:19:53;;;;;;;35.33;2.88;;;;;;;;;;5081113;28;20031;-80
2022/04/07 00:22:19;;;;;;;28.98;2.42;;;;;;;;;;5081280;28;20032;-79
2022/04/07 00:24:44;;;;;;;24.42;2.40;;;;;;;;;;5082150;28;20024;-79
2022/04/07 00:27:10;;;;;;;39.58;4.43;;;;;;;;;;5083932;28;20217;-79
2022/04/07 00:29:36;;;;;;;16.98;2.10;;;;;;;;;;5081688;28;20032;-79
2022/04/07 00:32:05;;;;;;;46.67;2.92;;;;;;;;;;5066876;28;20024;-80
2022/04/07 00:34:32;;;;;;;31.88;3.10;;;;;;;;;;5084171;28;20285;-80
2022/04/07 00:36:57;;;;;;;28.27;2.35;;;;;;;;;;5097580;28;20022;-79
2022/04/07 00:39:23;;;;;;;33.10;3.08;;;;;;;;;;5080202;28;20203;-81
2022/04/07 00:41:49;;;;;;;28.42;3.20;;;;;;;;;;5086205;28;20020;-81
2022/04/07 00:44:15;;;;;;;30.13;2.65;;;;;;;;;;5068130;28;20031;-79
2022/04/07 00:46:41;;;;;;;26.98;1.95;;;;;;;;;;5085257;28;20195;-82
2022/04/07 00:49:08;;;;;;;39.10;3.40;;;;;;;;;;5082493;28;20275;-81
2022/04/07 00:51:37;;;;;;;28.70;3.95;;;;;;;;;;5080863;28;20036;-81
2022/04/07 00:54:03;;;;;;;25.15;3.05;;;;;;;;;;5087357;28;20077;-80
2022/04/07 00:56:30;;;;;;;23.70;1.90;;;;;;;;;;5081490;28;20171;-80
2022/04/07 00:58:55;;;;;;;34.42;2.60;;;;;;;;;;5065850;28;20020;-80
2022/04/07 01:01:24;;;;;;;33.05;2.53;;;;;;;;;;5076357;28;20043;-80
2022/04/07 01:03:50;;;;;;;31.65;2.20;;;;;;;;;;5085121;28;20070;-79
2022/04/07 01:06:15;;;;;;;38.58;2.58;;;;;;;;;;5083154;28;20259;-80
2022/04/07 01:08:41;;;;;;;30.85;3.15;;;;;;;;;;5062860;28;20024;-80
2022/04/07 01:11:08;;;;;;;28.17;4.38;;;;;;;;;;5082105;28;20074;-79
2022/04/07 01:13:49;;;;;;;51.28;4.07;;;;;;;;;;5064499;28;20021;-79
2022/04/07 01:16:16;;;;;;;61.15;2.88;;;;;;;;;;5092145;28;20016;-80
2022/04/07 01:18:43;;;;;;;36.08;2.30;;;;;;;;;;5092899;28;20164;-79
2022/04/07 01:21:10;;;;;;;34.15;3.03;;;;;;;;;;5085188;28;20182;-79
2022/04/07 01:23:38;;;;;;;27.15;2.15;;;;;;;;;;5083139;28;20369;-79
2022/04/07 01:26:04;;;;;;;37.92;3.50;;;;;;;;;;5096673;28;20024;-79
2022/04/07 01:28:32;;;;;;;25.42;3.42;;;;;;;;;;5083545;28;20092;-81
2022/04/07 01:30:58;;;;;;;31.20;2.72;;;;;;;;;;5081954;28;20053;-81
2022/04/07 01:33:24;;;;;;;28.88;2.92;;;;;;;;;;5080651;28;20004;-80
2022/04/07 01:35:51;;;;;;;35.10;3.67;;;;;;;;;;5081349;28;20308;-80
2022/04/07 01:38:18;;;;;;;20.33;2.80;;;;;;;;;;5085620;28;20015;-80
2022/04/07 01:40:44;;;;;;;30.38;3.53;;;;;;;;;;5082735;28;20032;-80
2022/04/07 01:43:12;;;;;;;24.00;3.03;;;;;;;;;;5084799;28;20267;-80
2022/04/07 01:45:40;;;;;;;26.38;3.28;;;;;;;;;;5066155;28;20024;-80
2022/04/07 01:48:07;;;;;;;18.23;2.10;;;;;;;;;;5081577;28;20028;-81
2022/04/07 01:50:34;;;;;;;38.67;2.35;;;;;;;;;;5081722;28;20124;-79
2022/04/07 01:53:01;;;;;;;27.92;2.17;;;;;;;;;;5045893;28;20524;-81
2022/04/07 01:55:27;;;;;;;32.40;2.90;;;;;;;;;;5080135;28;20020;-79
2022/04/07 01:57:53;;;;;;;32.05;2.20;;;;;;;;;;5084029;28;20247;-80
2022/04/07 02:00:19;;;;;;;21.50;1.77;;;;;;;;;;5081009;28;20032;-79
2022/04/07 02:02:45;;;;;;;26.42;2.22;;;;;;;;;;5095207;28;20123;-80
2022/04/07 02:05:11;;;;;;;28.60;2.58;;;;;;;;;;5061135;28;20033;-79
2022/04/07 02:07:40;;;;;;;22.27;1.45;;;;;;;;;;5062398;28;20024;-79
2022/04/07 02:10:07;;;;;;;17.58;1.42;;;;;;;;;;5080184;28;20008;-80
2022/04/07 02:12:36;;;;;;;19.85;3.25;;;;;;;;;;5083689;28;20016;-79
2022/04/07 02:15:01;;;;;;;21.70;1.65;;;;;;;;;;5081639;28;20016;-79
2022/04/07 02:17:26;;;;;;;18.88;1.88;;;;;;;;;;5080184;28;20311;-80
2022/04/07 02:19:54;;;;;;;19.35;1.30;;;;;;;;;;5079882;28;20345;-79
2022/04/07 02:22:20;;;;;;;25.73;2.55;;;;;;;;;;5081491;28;20047;-80
2022/04/07 02:24:47;;;;;;;21.08;1.58;;;;;;;;;;5067440;28;20099;-80
2022/04/07 02:27:13;;;;;;;12.15;1.25;;;;;;;;;;5079665;28;20033;-78
2022/04/07 02:29:40;;;;;;;32.35;2.40;;;;;;;;;;5081820;28;20016;-78
2022/04/07 02:32:06;;;;;;;6.70;1.05;;;;;;;;;;5079857;28;20092;-78
2022/04/07 02:34:32;;;;;;;21.88;2.40;;;;;;;;;;5077699;28;20008;-79
2022/04/07 02:36:57;;;;;;;18.67;2.45;;;;;;;;;;5079081;28;20012;-80
2022/04/07 02:39:23;;;;;;;26.67;4.43;;;;;;;;;;5059844;28;20017;-79
2022/04/07 02:41:48;;;;;;;17.90;1.08;;;;;;;;;;5076110;28;20027;-80
2022/04/07 02:44:15;;;;;;;12.15;1.83;;;;;;;;;;5077995;28;20230;-80
2022/04/07 02:46:40;;;;;;;23.63;2.58;;;;;;;;;;5080716;28;20021;-80
2022/04/07 02:49:06;;;;;;;10.65;2.42;;;;;;;;;;5083982;28;20045;-79
2022/04/07 02:51:31;;;;;;;18.15;1.83;;;;;;;;;;5077622;28;20038;-81
2022/04/07 02:54:00;;;;;;;14.02;1.70;;;;;;;;;;5062849;28;20032;-79
2022/04/07 02:56:27;;;;;;;16.92;1.77;;;;;;;;;;5044262;28;20012;-78
2022/04/07 02:58:53;;;;;;;23.70;1.63;;;;;;;;;;5078800;28;20248;-79
2022/04/07 03:01:21;;;;;;;21.35;2.33;;;;;;;;;;5076726;28;20012;-79
2022/04/07 03:03:48;;;;;;;22.42;1.88;;;;;;;;;;5077954;28;20044;-81
2022/04/07 03:06:14;;;;;;;21.90;2.30;;;;;;;;;;5078427;28;20097;-81
2022/04/07 03:08:40;;;;;;;15.63;1.25;;;;;;;;;;5075126;28;20412;-79
2022/04/07 03:11:08;;;;;;;16.15;1.52;;;;;;;;;;5083623;28;20020;-81
2022/04/07 03:13:33;;;;;;;22.02;2.35;;;;;;;;;;5078110;28;20016;-79
2022/04/07 03:15:59;;;;;;;12.80;2.35;;;;;;;;;;5079447;28;20203;-79
2022/04/07 03:18:25;;;;;;;17.65;1.42;;;;;;;;;;5082507;28;20084;-78
2022/04/07 03:20:51;;;;;;;20.67;2.60;;;;;;;;;;5083886;28;20040;-78
2022/04/07 03:23:16;;;;;;;10.88;1.67;;;;;;;;;;5061713;28;20012;-78
2022/04/07 03:25:42;;;;;;;19.75;1.55;;;;;;;;;;5061034;28;20029;-79
2022/04/07 03:28:07;;;;;;;23.20;1.98;;;;;;;;;;5067636;28;20023;-80
2022/04/07 03:30:33;;;;;;;22.63;2.38;;;;;;;;;;5062127;28;20029;-79
2022/04/07 03:32:58;;;;;;;20.65;2.30;;;;;;;;;;5079301;28;20035;-80
2022/04/07 03:35:25;;;;;;;15.68;1.73;;;;;;;;;;5079336;28;20020;-79
2022/04/07 03:37:51;;;;;;;30.13;3.25;;;;;;;;;;5079492;28;20016;-79
2022/04/07 03:40:16;;;;;;;9.43;1.40;;;;;;;;;;5078267;28;20070;-80
2022/04/07 03:42:43;;;;;;;13.02;2.40;;;;;;;;;;5089269;28;20324;-79
2022/04/07 03:45:08;;;;;;;11.43;2.85;;;;;;;;;;5080781;28;20268;-79
2022/04/07 03:47:34;;;;;;;16.85;2.38;;;;;;;;;;5079718;28;20175;-79
2022/04/07 03:50:00;;;;;;;24.88;1.98;;;;;;;;;;5077748;28;20367;-78
2022/04/07 03:52:26;;;;;;;11.60;1.38;;;;;;;;;;5075483;28;20336;-80
2022/04/07 03:54:52;;;;;;;43.90;3.25;;;;;;;;;;5083299;28;20020;-79
2022/04/07 03:57:18;;;;;;;9.73;1.83;;;;;;;;;;5079307;28;20013;-79
2022/04/07 03:59:44;;;;;;;21.88;2.67;;;;;;;;;;5079320;28;20075;-80
2022/04/07 04:02:10;;;;;;;14.65;2.00;;;;;;;;;;5075405;28;20020;-79
2022/04/07 04:04:36;;;;;;;33.72;3.28;;;;;;;;;;5078159;28;20152;-79
2022/04/07 04:07:03;;;;;;;17.83;2.90;;;;;;;;;;5078994;28;20024;-79
2022/04/07 04:09:29;;;;;;;24.67;2.25;;;;;;;;;;5080798;28;20067;-79
2022/04/07 04:11:54;;;;;;;33.92;3.05;;;;;;;;;;5061450;28;20034;-79
2022/04/07 04:14:19;;;;;;;18.73;1.60;;;;;;;;;;5081017;28;20262;-79
2022/04/07 04:16:45;;;;;;;26.25;2.20;;;;;;;;;;5079088;28;20024;-79
2022/04/07 04:19:11;;;;;;;32.35;2.80;;;;;;;;;;5043339;28;20040;-79
2022/04/07 04:21:37;;;;;;;18.27;1.92;;;;;;;;;;5081419;28;20032;-80
2022/04/07 04:24:03;;;;;;;25.83;1.88;;;;;;;;;;5082532;28;20081;-79
2022/04/07 04:26:28;;;;;;;19.13;2.42;;;;;;;;;;5074340;28;20267;-79
2022/04/07 04:28:54;;;;;;;32.38;2.17;;;;;;;;;;5081884;28;20032;-79
2022/04/07 04:31:24;;;;;;;16.48;3.55;;;;;;;;;;5058524;28;20032;-79
2022/04/07 04:33:54;;;;;;;35.80;1.90;;;;;;;;;;5076526;28;20024;-80
2022/04/07 04:36:20;;;;;;;14.68;1.65;;;;;;;;;;5076500;28;20155;-80
2022/04/07 04:38:46;;;;;;;23.70;1.42;;;;;;;;;;5079891;28;20162;-80
2022/04/07 04:41:11;;;;;;;26.45;1.90;;;;;;;;;;5094249;28;20039;-80
2022/04/07 04:43:37;;;;;;;21.67;2.50;;;;;;;;;;5064817;28;20038;-79
2022/04/07 04:46:02;;;;;;;25.98;2.22;;;;;;;;;;5085211;28;20017;-80
2022/04/07 04:48:28;;;;;;;24.48;2.28;;;;;;;;;;5085140;28;20266;-79
2022/04/07 04:50:55;;;;;;;15.98;1.80;;;;;;;;;;5080230;28;20319;-80
2022/04/07 04:53:22;;;;;;;32.00;2.50;;;;;;;;;;5082288;28;20017;-80
2022/04/07 04:55:48;;;;;;;14.45;1.88;;;;;;;;;;5082837;28;20307;-80
2022/04/07 04:58:14;;;;;;;23.77;2.63;;;;;;;;;;5077914;28;20171;-81
2022/04/07 05:00:40;;;;;;;21.15;1.90;;;;;;;;;;5048562;28;20035;-80
2022/04/07 05:03:05;;;;;;;23.48;1.63;;;;;;;;;;5071839;28;20190;-79
2022/04/07 05:05:31;;;;;;;42.10;2.83;;;;;;;;;;5084164;28;20249;-80
2022/04/07 05:07:57;;;;;;;17.02;2.03;;;;;;;;;;5079006;28;20024;-80
2022/04/07 05:10:24;;;;;;;33.15;2.85;;;;;;;;;;5083124;28;20020;-79
2022/04/07 05:12:50;;;;;;;20.15;2.22;;;;;;;;;;5082088;28;20488;-80
2022/04/07 05:15:16;;;;;;;34.13;2.55;;;;;;;;;;5082261;28;20020;-80
2022/04/07 05:17:41;;;;;;;23.42;2.92;;;;;;;;;;5082304;28;20019;-80
2022/04/07 05:20:08;;;;;;;22.15;1.75;;;;;;;;;;5069579;28;20040;-79
2022/04/07 05:22:34;;;;;;;32.92;2.03;;;;;;;;;;5078935;28;20028;-79
2022/04/07 05:24:59;;;;;;;19.20;1.63;;;;;;;;;;5079333;28;20104;-80
2022/04/07 05:27:28;;;;;;;19.15;1.77;;;;;;;;;;5060861;28;20024;-79
2022/04/07 05:29:53;;;;;;;22.05;3.40;;;;;;;;;;5086189;28;20038;-79
2022/04/07 05:32:19;;;;;;;24.95;2.25;;;;;;;;;;5095549;28;20264;-79
2022/04/07 05:34:44;;;;;;;33.15;3.35;;;;;;;;;;5082406;28;20021;-80
2022/04/07 05:37:10;;;;;;;26.20;2.47;;;;;;;;;;5049756;28;20179;-79
2022/04/07 05:39:35;;;;;;;33.22;3.10;;;;;;;;;;5081579;28;20021;-82
2022/04/07 05:42:01;;;;;;;26.95;2.28;;;;;;;;;;5080973;28;20028;-79
2022/04/07 05:44:26;;;;;;;32.03;3.70;;;;;;;;;;5063544;28;20066;-80
2022/04/07 05:46:52;;;;;;;17.67;2.60;;;;;;;;;;5083906;28;20027;-79
2022/04/07 05:49:18;;;;;;;9.43;1.20;;;;;;;;;;5081400;28;20018;-79
2022/04/07 05:51:43;;;;;;;21.02;2.78;;;;;;;;;;5079536;28;20020;-79
2022/04/07 05:54:09;;;;;;;22.23;1.63;;;;;;;;;;5072597;28;20024;-80
2022/04/07 05:56:34;;;;;;;17.58;1.45;;;;;;;;;;5082413;28;20305;-80
2022/04/07 05:59:00;;;;;;;19.20;2.20;;;;;;;;;;5091670;28;20165;-80
2022/04/07 06:01:25;;;;;;;16.13;1.40;;;;;;;;;;5064882;28;20132;-84
2022/04/07 06:03:51;;;;;;;17.20;2.00;;;;;;;;;;5086830;28;20039;-80
2022/04/07 06:06:16;;;;;;;23.35;2.85;;;;;;;;;;5065028;28;20092;-81
2022/04/07 06:08:42;;;;;;;25.70;1.40;;;;;;;;;;5094590;28;20179;-80
2022/04/07 06:11:07;;;;;;;16.73;2.30;;;;;;;;;;5080284;28;20020;-80
2022/04/07 06:13:34;;;;;;;28.90;2.47;;;;;;;;;;5081698;28;20083;-80
2022/04/07 06:16:00;;;;;;;20.73;1.77;;;;;;;;;;5084225;28;20025;-80
2022/04/07 06:18:27;;;;;;;17.85;2.08;;;;;;;;;;5079677;28;20042;-80
2022/04/07 06:20:53;;;;;;;21.48;1.60;;;;;;;;;;5079863;28;20041;-80
2022/04/07 06:23:18;;;;;;;17.42;2.78;;;;;;;;;;5043173;28;20183;-79
2022/04/07 06:25:44;;;;;;;8.25;1.60;;;;;;;;;;5063019;28;20033;-80
2022/04/07 06:28:09;;;;;;;13.05;1.38;;;;;;;;;;5060975;28;20021;-81
2022/04/07 06:30:35;;;;;;;26.77;2.80;;;;;;;;;;5042454;28;20020;-79
2022/04/07 06:33:00;;;;;;;13.90;2.17;;;;;;;;;;5080504;28;20024;-80
2022/04/07 06:35:26;;;;;;;19.48;1.88;;;;;;;;;;5060903;28;20016;-81
2022/04/07 06:37:54;;;;;;;14.13;1.58;;;;;;;;;;5079415;28;20202;-80
2022/04/07 06:40:25;;;;;;;12.80;1.58;;;;;;;;;;5064203;28;20044;-80
2022/04/07 06:42:52;;;;;;;15.57;2.25;;;;;;;;;;5079829;28;20016;-79
2022/04/07 06:45:18;;;;;;;20.67;1.60;;;;;;;;;;5076158;28;20019;-80
2022/04/07 06:47:43;;;;;;;29.90;5.10;;;;;;;;;;5077211;28;20027;-80
2022/04/07 06:50:11;;;;;;;30.55;3.20;;;;;;;;;;5053965;28;20103;-80
2022/04/07 06:52:37;;;;;;;22.63;2.85;;;;;;;;;;5079571;28;20058;-80
2022/04/07 06:55:03;;;;;;;27.50;2.67;;;;;;;;;;5077058;28;20166;-80
2022/04/07 06:57:29;;;;;;;26.67;2.50;;;;;;;;;;5076915;28;20016;-80
2022/04/07 06:59:54;;;;;;;25.80;2.10;;;;;;;;;;5079591;28;20170;-80
2022/04/07 07:02:20;;;;;;;21.50;2.13;;;;;;;;;;5078300;28;20032;-80
2022/04/07 07:04:45;;;;;;;26.38;2.22;;;;;;;;;;5082164;28;20091;-83
2022/04/07 07:07:11;;;;;;;17.13;2.10;;;;;;;;;;5066409;28;20016;-80
2022/04/07 07:09:38;;;;;;;22.88;1.85;;;;;;;;;;5077995;28;20066;-80
2022/04/07 07:12:03;;;;;;;19.08;1.60;;;;;;;;;;5076147;28;20076;-80
2022/04/07 07:14:29;;;;;;;12.50;1.30;;;;;;;;;;5076059;28;20290;-78
2022/04/07 07:16:56;;;;;;;20.63;2.50;;;;;;;;;;5080047;28;20039;-83
2022/04/07 07:19:26;;;;;;;14.85;1.77;;;;;;;;;;5097284;28;20295;-79
2022/04/07 07:21:55;;;;;;;27.42;3.63;;;;;;;;;;5073602;28;20028;-75
2022/04/07 07:24:20;;;;;;;18.48;2.35;;;;;;;;;;5078816;28;20020;-79
2022/04/07 07:26:46;;;;;;;21.17;2.10;;;;;;;;;;5082094;28;20035;-79
2022/04/07 07:29:11;;;;;;;18.27;2.53;;;;;;;;;;5097150;28;20329;-80
2022/04/07 07:31:37;;;;;;;54.00;4.93;;;;;;;;;;5083021;28;20274;-79
2022/04/07 07:34:06;;;;;;;18.13;2.10;;;;;;;;;;5064146;28;20017;-80
2022/04/07 07:36:31;;;;;;;18.63;2.03;;;;;;;;;;5078578;28;20264;-80
2022/04/07 07:38:57;;;;;;;13.20;1.58;;;;;;;;;;5082011;28;20035;-79
2022/04/07 07:41:23;;;;;;;12.25;1.67;;;;;;;;;;5079420;28;20016;-79
2022/04/07 07:43:49;;;;;;;14.40;1.98;;;;;;;;;;5078773;28;20016;-79
2022/04/07 07:46:15;;;;;;;14.05;1.60;;;;;;;;;;5067101;28;20031;-79
2022/04/07 07:48:40;;;;;;;17.13;1.90;;;;;;;;;;5082299;28;20134;-80
2022/04/07 07:51:05;;;;;;;17.42;1.95;;;;;;;;;;5059988;28;20027;-80
2022/04/07 07:53:31;;;;;;;18.02;2.03;;;;;;;;;;5062846;28;20195;-80
2022/04/07 07:55:56;;;;;;;17.67;2.10;;;;;;;;;;5063739;28;20025;-79
2022/04/07 07:58:23;;;;;;;16.00;1.98;;;;;;;;;;5066246;28;20024;-81
2022/04/07 08:00:49;;;;;;;24.23;2.45;;;;;;;;;;5068860;28;20016;-79
2022/04/07 08:03:15;;;;;;;14.73;1.38;;;;;;;;;;5100951;28;20066;-80
2022/04/07 08:05:41;;;;;;;15.95;2.30;;;;;;;;;;5078069;28;20034;-80
2022/04/07 08:08:07;;;;;;;18.40;1.90;;;;;;;;;;5082157;28;20099;-81
2022/04/07 08:10:32;;;;;;;14.38;1.67;;;;;;;;;;5086820;28;20091;-81
2022/04/07 08:12:58;;;;;;;13.82;1.38;;;;;;;;;;5097459;28;20020;-79
2022/04/07 08:15:24;;;;;;;14.43;1.98;;;;;;;;;;5076964;28;20021;-80
2022/04/07 08:17:51;;;;;;;15.32;1.52;;;;;;;;;;5080682;28;20135;-80
2022/04/07 08:20:17;;;;;;;7.97;1.35;;;;;;;;;;5080379;28;20273;-79
2022/04/07 08:22:43;;;;;;;18.05;1.85;;;;;;;;;;5081573;28;20024;-80
2022/04/07 08:25:09;;;;;;;19.35;2.70;;;;;;;;;;5083996;28;20042;-79
2022/04/07 08:27:35;;;;;;;20.45;2.50;;;;;;;;;;5078152;28;20056;-79
2022/04/07 08:30:00;;;;;;;11.88;1.42;;;;;;;;;;5097222;28;20283;-79
2022/04/07 08:32:26;;;;;;;13.02;2.05;;;;;;;;;;5078506;28;20057;-79
2022/04/07 08:34:52;;;;;;;17.88;2.30;;;;;;;;;;5080726;28;20063;-79
2022/04/07 08:37:17;;;;;;;17.33;1.42;;;;;;;;;;5098890;28;20032;-80
2022/04/07 08:39:43;;;;;;;6.35;1.48;;;;;;;;;;5047779;28;20278;-79
2022/04/07 08:42:08;;;;;;;11.00;1.33;;;;;;;;;;5083018;28;20293;-79
2022/04/07 08:44:34;;;;;;;11.57;2.05;;;;;;;;;;5081652;28;20031;-79
2022/04/07 08:47:00;;;;;;;10.88;1.13;;;;;;;;;;5089734;28;20286;-79
2022/04/07 08:49:32;;;;;;;13.93;1.92;;;;;;;;;;5080860;28;20123;-79
2022/04/07 08:51:58;;;;;;;24.58;1.70;;;;;;;;;;5073992;28;20017;-80
2022/04/07 08:54:24;;;;;;;14.95;1.45;;;;;;;;;;5081677;28;20037;-79
2022/04/07 08:56:50;;;;;;;9.40;1.20;;;;;;;;;;5053373;28;20186;-80
2022/04/07 08:59:16;;;;;;;9.25;1.52;;;;;;;;;;5084028;28;20020;-79
2022/04/07 09:01:42;;;;;;;11.00;1.42;;;;;;;;;;5092891;28;20037;-80
2022/04/07 09:04:12;;;;;;;16.23;1.60;;;;;;;;;;5086509;28;20262;-79
2022/04/07 09:06:39;;;;;;;8.50;2.55;;;;;;;;;;5076657;28;20016;-79
2022/04/07 09:09:18;;;;;;;11.63;1.10;;;;;;;;;;5084472;28;20043;-80
2022/04/07 09:11:44;;;;;;;15.27;1.88;;;;;;;;;;5084106;28;20023;-79
2022/04/07 09:14:10;;;;;;;13.73;1.70;;;;;;;;;;5081689;28;20027;-80
2022/04/07 09:16:40;;;;;;;12.93;1.30;;;;;;;;;;5082635;28;20055;-79
2022/04/07 09:19:07;;;;;;;3.25;0.88;;;;;;;;;;5079346;28;20058;-81
2022/04/07 09:21:34;;;;;;;9.93;1.30;;;;;;;;;;5082233;28;20037;-79
2022/04/07 09:24:05;;;;;;;9.20;1.73;;;;;;;;;;5088501;28;20021;-79
2022/04/07 09:26:33;;;;;;;15.60;1.45;;;;;;;;;;5095461;28;20144;-79
2022/04/07 09:29:06;;;;;;;7.30;1.17;;;;;;;;;;5086782;28;20250;-79
2022/04/07 09:31:36;;;;;;;6.97;1.30;;;;;;;;;;5082703;28;20040;-79
2022/04/07 09:34:02;;;;;;;10.07;1.50;;;;;;;;;;5080675;28;20017;-79
2022/04/07 09:36:28;;;;;;;6.18;0.98;;;;;;;;;;5096065;28;20096;-78
2022/04/07 09:38:55;;;;;;;7.47;1.38;;;;;;;;;;5094125;28;20065;-79
2022/04/07 09:41:22;;;;;;;5.43;1.10;;;;;;;;;;5075810;28;20036;-79
2022/04/07 09:43:58;;;;;;;7.93;0.90;;;;;;;;;;5083349;28;20201;-81
2022/04/07 09:46:25;;;;;;;13.18;0.85;;;;;;;;;;5072849;28;20056;-77
2022/04/07 09:49:03;;;;;;;9.52;1.10;;;;;;;;;;5105633;28;20016;-78
2022/04/07 09:51:29;;;;;;;6.50;0.88;;;;;;;;;;5080328;28;20171;-78
2022/04/07 09:53:56;;;;;;;8.85;1.08;;;;;;;;;;5096271;28;20066;-78
2022/04/07 09:56:27;;;;;;;6.50;1.10;;;;;;;;;;5083803;28;20028;-79
2022/04/07 09:58:54;;;;;;;5.15;0.63;;;;;;;;;;5081707;28;20025;-78
2022/04/07 10:01:19;;;;;;;8.75;1.77;;;;;;;;;;5080449;28;20008;-78
2022/04/07 10:03:47;;;;;;;3.88;0.85;;;;;;;;;;5082251;28;20347;-77
2022/04/07 10:06:14;;;;;;;9.00;0.80;;;;;;;;;;5090587;28;20020;-78
2022/04/07 10:08:41;;;;;;;4.45;0.95;;;;;;;;;;5083000;28;20028;-78
2022/04/07 10:11:08;;;;;;;3.28;0.85;;;;;;;;;;5083468;28;20047;-79
2022/04/07 10:13:36;;;;;;;3.45;0.75;;;;;;;;;;5083298;28;20482;-79
2022/04/07 10:16:03;;;;;;;3.35;0.65;;;;;;;;;;5084905;28;20886;-79
2022/04/07 10:18:39;;;;;;;6.20;0.57;;;;;;;;;;5091428;28;20021;-78
2022/04/07 10:21:10;;;;;;;2.47;0.50;;;;;;;;;;5084085;28;20040;-79
2022/04/07 10:23:46;;;;;;;8.18;0.90;;;;;;;;;;5081335;28;20031;-78
2022/04/07 10:26:13;;;;;;;8.95;1.13;;;;;;;;;;5079246;28;20048;-78
2022/04/07 10:28:39;;;;;;;14.15;0.98;;;;;;;;;;5085632;28;20024;-79
2022/04/07 10:31:15;;;;;;;10.02;1.35;;;;;;;;;;5080179;28;20159;-78
2022/04/07 10:33:47;;;;;;;5.65;1.25;;;;;;;;;;5063775;28;20040;-78
2022/04/07 10:36:18;;;;;;;3.08;0.70;;;;;;;;;;5081309;28;20032;-80
2022/04/07 10:38:49;;;;;;;7.43;1.00;;;;;;;;;;5079733;28;20220;-79
2022/04/07 10:41:40;;;;;;;9.48;1.10;;;;;;;;;;5076832;28;20069;-79
2022/04/07 10:44:13;;;;;;;5.60;0.93;;;;;;;;;;5083786;28;20155;-80
2022/04/07 10:46:39;;;;;;;5.00;1.25;;;;;;;;;;5064101;28;20028;-80
2022/04/07 10:49:24;;;;;;;7.90;0.82;;;;;;;;;;5078074;28;20054;-79
2022/04/07 10:51:58;;;;;;;4.82;0.90;;;;;;;;;;5075510;28;20009;-79
2022/04/07 10:54:28;;;;;;;12.57;2.47;;;;;;;;;;5078348;28;20051;-80
2022/04/07 10:56:56;;;;;;;3.58;0.88;;;;;;;;;;5079295;28;20012;-79
2022/04/07 10:59:24;;;;;;;2.72;0.93;;;;;;;;;;5084640;28;20131;-82
2022/04/07 11:02:15;;;;;;;6.32;0.82;;;;;;;;;;5082006;28;20037;-78
2022/04/07 11:05:23;;;;;;;7.20;0.80;;;;;;;;;;5075426;28;20289;-79
2022/04/07 11:07:51;;;;;;;4.05;0.70;;;;;;;;;;5041110;28;20032;-79
2022/04/07 11:10:19;;;;;;;14.65;2.03;;;;;;;;;;5080368;28;20038;-79
2022/04/07 11:13:01;;;;;;;7.60;1.25;;;;;;;;;;5084774;28;20013;-79
2022/04/07 11:15:41;;;;;;;4.47;1.25;;;;;;;;;;5080526;28;20047;-80
2022/04/07 11:18:36;;;;;;;7.13;0.77;;;;;;;;;;5085746;28;20043;-79
2022/04/07 11:21:08;;;;;;;7.10;1.58;;;;;;;;;;5042238;28;20034;-79
2022/04/07 11:23:49;;;;;;;4.10;1.00;;;;;;;;;;5082745;28;20022;-79
2022/04/07 11:26:24;;;;;;;10.50;1.05;;;;;;;;;;5076980;28;20051;-79
2022/04/07 11:29:02;;;;;;;10.57;1.98;;;;;;;;;;5075294;28;20112;-78
2022/04/07 11:31:40;;;;;;;8.75;0.88;;;;;;;;;;5091032;28;20013;-78
2022/04/07 11:34:39;;;;;;;9.55;0.93;;;;;;;;;;5078566;28;20012;-79
2022/04/07 11:37:14;;;;;;;7.50;1.02;;;;;;;;;;5081700;28;20119;-77
2022/04/07 11:39:41;;;;;;;8.07;1.00;;;;;;;;;;5082090;28;20098;-78
2022/04/07 11:42:07;;;;;;;5.35;0.80;;;;;;;;;;5081157;28;20187;-78
2022/04/07 11:44:33;;;;;;;6.45;1.25;;;;;;;;;;5078888;28;20013;-78
2022/04/07 11:47:02;;;;;;;4.57;0.90;;;;;;;;;;5079815;28;20070;-78
2022/04/07 11:49:29;;;;;;;9.57;1.55;;;;;;;;;;5076726;28;20016;-78
2022/04/07 11:51:55;;;;;;;3.95;0.60;;;;;;;;;;5091742;28;20463;-77
2022/04/07 11:54:21;;;;;;;8.90;1.33;;;;;;;;;;5086875;28;20020;-78
2022/04/07 11:56:48;;;;;;;7.13;1.42;;;;;;;;;;5069015;28;20020;-78
2022/04/07 11:59:14;;;;;;;10.13;1.73;;;;;;;;;;5080880;28;20069;-78
2022/04/07 12:01:46;;;;;;;8.15;1.10;;;;;;;;;;5086054;28;20016;-78
2022/04/07 12:04:13;;;;;;;;;;;;;;;;;;5075966;28;20533;-78
2022/04/07 12:06:40;;;;;;;10.85;1.52;;;;;;;;;;5087041;28;19979;-78
2022/04/07 12:09:07;;;;;;;17.13;1.98;;;;;;;;;;5081716;28;20012;-77
2022/04/07 12:11:34;;;;;;;14.82;1.75;;;;;;;;;;5083978;28;20024;-78
2022/04/07 12:14:04;;;;;;;8.45;1.20;;;;;;;;;;5083275;28;20042;-78
2022/04/07 12:16:30;;;;;;;10.00;1.92;;;;;;;;;;5100128;28;20047;-79
2022/04/07 12:19:01;;;;;;;4.07;1.10;;;;;;;;;;5079879;28;20251;-78
2022/04/07 12:21:29;;;;;;;3.25;0.90;;;;;;;;;;5087186;28;20036;-79
2022/04/07 12:24:13;;;;;;;10.32;1.33;;;;;;;;;;5080735;28;20279;-79
2022/04/07 12:26:43;;;;;;;9.00;1.17;;;;;;;;;;5096351;28;20263;-79
2022/04/07 12:29:22;;;;;;;5.55;0.80;;;;;;;;;;5087667;28;20286;-80
2022/04/07 12:32:20;;;;;;;11.45;0.90;;;;;;;;;;5081095;28;20160;-80
2022/04/07 12:34:49;;;;;;;9.68;1.25;;;;;;;;;;5072512;28;20055;-79
2022/04/07 12:37:28;;;;;;;11.48;1.25;;;;;;;;;;5073942;28;20028;-79
2022/04/07 12:39:54;;;;;;;9.77;1.38;;;;;;;;;;5083869;28;20086;-80
2022/04/07 12:42:21;;;;;;;11.50;2.22;;;;;;;;;;5083480;28;20263;-79
2022/04/07 12:44:48;;;;;;;8.35;1.30;;;;;;;;;;5087803;28;20040;-80
2022/04/07 12:47:25;;;;;;;7.47;1.02;;;;;;;;;;5081334;28;20020;-79
2022/04/07 12:50:01;;;;;;;13.13;1.63;;;;;;;;;;5063318;28;20273;-79
2022/04/07 12:52:43;;;;;;;19.30;1.90;;;;;;;;;;5075665;28;20114;-79
2022/04/07 12:55:10;;;;;;;10.85;2.13;;;;;;;;;;5085845;28;20035;-80
2022/04/07 12:57:39;;;;;;;7.63;1.25;;;;;;;;;;5082259;28;20048;-79
2022/04/07 13:00:16;;;;;;;17.58;1.65;;;;;;;;;;5080672;28;20076;-79
2022/04/07 13:02:52;;;;;;;9.15;1.33;;;;;;;;;;5083970;28;20016;-81
2022/04/07 13:05:28;;;;;;;10.15;1.38;;;;;;;;;;5081404;28;20031;-76
2022/04/07 13:08:01;;;;;;;12.05;1.42;;;;;;;;;;5083232;28;20032;-77
2022/04/07 13:10:28;;;;;;;6.50;1.42;;;;;;;;;;5082742;28;20028;-77
2022/04/07 13:12:54;;;;;;;10.50;2.55;;;;;;;;;;5093102;28;20032;-78
2022/04/07 13:15:19;;;;;;;11.40;1.00;;;;;;;;;;5082151;28;20223;-78
2022/04/07 13:17:46;;;;;;;13.40;1.30;;;;;;;;;;5085202;28;20032;-79
2022/04/07 13:20:12;;;;;;;12.02;1.60;;;;;;;;;;5079016;28;20051;-78
2022/04/07 13:22:38;;;;;;;13.48;2.10;;;;;;;;;;5086024;28;20027;-78
2022/04/07 13:25:05;;;;;;;13.90;2.30;;;;;;;;;;5084426;28;20016;-78
2022/04/07 13:27:30;;;;;;;9.82;1.60;;;;;;;;;;5098079;28;20021;-79
2022/04/07 13:29:56;;;;;;;17.88;1.67;;;;;;;;;;5077846;28;20016;-78
2022/04/07 13:32:24;;;;;;;8.52;1.45;;;;;;;;;;5085791;28;20449;-78
2022/04/07 13:34:53;;;;;;;6.70;1.15;;;;;;;;;;5086708;28;20132;-78
2022/04/07 13:37:19;;;;;;;8.88;1.30;;;;;;;;;;5082914;28;20020;-79
2022/04/07 13:39:45;;;;;;;14.10;1.23;;;;;;;;;;5083552;28;20263;-79
2022/04/07 13:42:11;;;;;;;11.60;1.40;;;;;;;;;;5083856;28;20062;-78
2022/04/07 13:44:37;;;;;;;12.70;1.83;;;;;;;;;;5085795;28;20012;-78
2022/04/07 13:47:03;;;;;;;12.38;1.55;;;;;;;;;;5082912;28;20035;-78
2022/04/07 13:49:29;;;;;;;7.93;1.55;;;;;;;;;;5082098;28;20205;-78
2022/04/07 13:52:00;;;;;;;8.27;1.58;;;;;;;;;;5080382;28;20021;-78
2022/04/07 13:54:26;;;;;;;4.40;0.70;;;;;;;;;;5085959;28;20033;-79
2022/04/07 13:56:52;;;;;;;5.72;1.20;;;;;;;;;;5080366;28;20016;-77
2022/04/07 13:59:17;;;;;;;12.52;1.23;;;;;;;;;;5078798;28;20038;-78
2022/04/07 14:01:43;;;;;;;9.45;1.15;;;;;;;;;;5079243;28;20055;-78
2022/04/07 14:04:08;;;;;;;6.35;1.58;;;;;;;;;;5095364;28;20050;-78
2022/04/07 14:06:34;;;;;;;9.00;2.25;;;;;;;;;;5083823;28;20016;-79
2022/04/07 14:08:59;;;;;;;6.78;0.95;;;;;;;;;;5062234;28;20193;-79
2022/04/07 14:11:25;;;;;;;7.63;1.65;;;;;;;;;;5094949;28;20028;-79
2022/04/07 14:13:52;;;;;;;9.50;1.58;;;;;;;;;;5084782;28;20017;-79
2022/04/07 14:16:19;;;;;;;7.93;1.02;;;;;;;;;;5079375;28;20016;-78
2022/04/07 14:18:45;;;;;;;5.85;1.13;;;;;;;;;;5081513;28;20294;-78
2022/04/07 14:21:12;;;;;;;9.35;0.90;;;;;;;;;;5083588;28;20037;-79
2022/04/07 14:23:38;;;;;;;9.70;0.90;;;;;;;;;;5080577;28;20017;-78
2022/04/07 14:26:05;;;;;;;14.27;1.55;;;;;;;;;;5096892;28;20215;-78
2022/04/07 14:28:31;;;;;;;5.90;1.15;;;;;;;;;;5061984;28;20020;-79
2022/04/07 14:30:56;;;;;;;12.35;1.55;;;;;;;;;;5083517;28;20024;-78
2022/04/07 14:33:22;;;;;;;11.20;1.30;;;;;;;;;;5098383;28;20020;-80
2022/04/07 14:35:49;;;;;;;10.50;1.17;;;;;;;;;;5081730;28;20166;-80